createdAt,value
2022-11-16T00:02:08.469Z,5.90
2022-11-16T00:04:36.103Z,5.90
2022-11-16T00:07:03.565Z,5.90
2022-11-16T00:09:33.891Z,5.80
2022-11-16T00:12:05.090Z,5.90
2022-11-16T00:14:35.126Z,5.90
2022-11-16T00:17:03.577Z,5.90
2022-11-16T00:19:31.328Z,5.90
2022-11-16T00:21:58.639Z,6.00
2022-11-16T00:24:25.832Z,6.00
2022-11-16T00:26:54.902Z,6.00
2022-11-16T00:29:24.645Z,6.00
2022-11-16T00:31:52.441Z,6.10
2022-11-16T00:34:19.943Z,6.10
2022-11-16T00:36:47.200Z,6.10
2022-11-16T00:39:16.078Z,6.10
2022-11-16T00:41:44.232Z,6.20
2022-11-16T00:44:12.063Z,6.20
2022-11-16T00:46:39.645Z,6.10
2022-11-16T00:49:07.065Z,6.10
2022-11-16T00:51:35.803Z,6.20
2022-11-16T00:54:04.029Z,6.10
2022-11-16T00:56:31.139Z,6.10
2022-11-16T00:58:58.444Z,6.00
2022-11-16T01:01:25.662Z,6.00
2022-11-16T01:03:52.891Z,6.10
2022-11-16T01:06:20.445Z,6.10
2022-11-16T01:08:47.680Z,6.10
2022-11-16T01:11:34.980Z,6.00
2022-11-16T01:14:04.050Z,6.00
2022-11-16T01:16:31.868Z,6.00
2022-11-16T01:18:59.038Z,5.90
2022-11-16T01:21:26.205Z,5.70
2022-11-16T01:23:54.571Z,5.60
2022-11-16T01:26:21.847Z,5.60
2022-11-16T01:28:49.050Z,5.70
2022-11-16T01:31:16.272Z,5.70
2022-11-16T01:33:43.458Z,5.70
2022-11-16T01:36:14.934Z,5.70
2022-11-16T01:38:43.537Z,5.60
2022-11-16T01:41:20.577Z,5.60
2022-11-16T01:43:58.590Z,5.70
2022-11-16T01:46:26.590Z,5.50
2022-11-16T01:49:04.130Z,5.50
2022-11-16T01:51:32.734Z,5.50
2022-11-16T01:54:02.626Z,5.50
2022-11-16T01:56:32.894Z,5.50
2022-11-16T01:59:00.283Z,5.50
2022-11-16T02:01:27.624Z,5.50
2022-11-16T02:03:54.940Z,5.50
2022-11-16T02:06:38.524Z,5.50
2022-11-16T02:09:43.915Z,5.40
2022-11-16T02:12:29.253Z,5.40
2022-11-16T02:15:27.511Z,5.40
2022-11-16T02:18:22.619Z,5.30
2022-11-16T02:21:01.577Z,5.40
2022-11-16T02:23:54.006Z,5.40
2022-11-16T02:26:42.341Z,5.40
2022-11-16T02:29:34.082Z,5.40
2022-11-16T02:32:13.815Z,5.40
2022-11-16T02:35:05.159Z,5.40
2022-11-16T02:37:36.546Z,5.50
2022-11-16T02:40:09.226Z,5.50
2022-11-16T02:42:52.065Z,5.50
2022-11-16T02:45:26.247Z,5.60
2022-11-16T02:47:56.994Z,5.60
2022-11-16T02:50:25.968Z,5.70
2022-11-16T02:52:53.107Z,5.70
2022-11-16T02:55:20.446Z,5.70
2022-11-16T02:57:57.471Z,5.70
2022-11-16T03:00:33.879Z,5.80
2022-11-16T03:03:19.618Z,5.80
2022-11-16T03:05:56.352Z,5.80
2022-11-16T03:08:35.812Z,5.80
2022-11-16T03:11:25.042Z,5.80
2022-11-16T03:13:55.625Z,5.80
2022-11-16T03:16:26.363Z,5.80
2022-11-16T03:18:55.657Z,5.80
2022-11-16T03:21:48.945Z,5.80
2022-11-16T03:24:16.714Z,5.80
2022-11-16T03:26:50.795Z,5.70
2022-11-16T03:29:30.210Z,5.70
2022-11-16T03:32:05.165Z,5.70
2022-11-16T03:34:34.991Z,5.70
2022-11-16T03:37:04.195Z,5.70
2022-11-16T03:39:38.705Z,5.70
2022-11-16T03:42:14.150Z,5.70
2022-11-16T03:44:43.191Z,5.70
2022-11-16T03:47:11.629Z,5.70
2022-11-16T03:49:44.766Z,5.70
2022-11-16T03:52:12.839Z,5.70
2022-11-16T03:54:40.228Z,5.70
2022-11-16T03:57:18.545Z,5.70
2022-11-16T03:59:46.166Z,5.70
2022-11-16T04:02:13.467Z,5.70
2022-11-16T04:04:59.189Z,5.60
2022-11-16T04:07:44.849Z,5.60
2022-11-16T04:10:31.758Z,5.60
2022-11-16T04:13:18.960Z,5.50
2022-11-16T04:16:04.544Z,5.50
2022-11-16T04:18:50.198Z,5.50
2022-11-16T04:21:52.918Z,5.40
2022-11-16T04:24:26.929Z,5.40
2022-11-16T04:27:17.598Z,5.40
2022-11-16T04:29:45.131Z,5.40
2022-11-16T04:32:31.165Z,5.40
2022-11-16T04:35:16.926Z,5.40
2022-11-16T04:37:52.494Z,5.40
2022-11-16T04:40:23.001Z,5.30
2022-11-16T04:42:58.269Z,5.40
2022-11-16T04:45:45.785Z,5.30
2022-11-16T04:48:14.567Z,5.40
2022-11-16T04:50:42.378Z,5.40
2022-11-16T04:53:10.103Z,5.40
2022-11-16T04:55:37.390Z,5.40
2022-11-16T04:58:05.091Z,5.40
2022-11-16T05:00:32.737Z,5.40
2022-11-16T05:03:01.792Z,5.40
2022-11-16T05:05:29.231Z,5.50
2022-11-16T05:07:56.421Z,5.50
2022-11-16T05:10:23.616Z,5.50
2022-11-16T05:12:50.843Z,5.50
2022-11-16T05:15:19.874Z,5.50
2022-11-16T05:17:47.492Z,5.50
2022-11-16T05:20:33.383Z,5.50
2022-11-16T05:23:00.794Z,5.40
2022-11-16T05:25:31.359Z,5.40
2022-11-16T05:28:03.114Z,5.40
2022-11-16T05:30:30.279Z,5.40
2022-11-16T05:32:57.402Z,5.40
2022-11-16T05:35:24.533Z,5.40
2022-11-16T05:37:52.026Z,5.40
2022-11-16T05:40:19.309Z,5.40
2022-11-16T05:42:46.535Z,5.30
2022-11-16T05:45:18.418Z,5.30
2022-11-16T05:47:48.041Z,5.30
2022-11-16T05:50:15.578Z,5.40
2022-11-16T05:52:42.767Z,5.30
2022-11-16T05:55:10.029Z,5.30
2022-11-16T05:57:37.172Z,5.20
2022-11-16T06:00:04.933Z,5.20
2022-11-16T06:02:33.338Z,5.20
2022-11-16T06:05:00.511Z,5.20
2022-11-16T06:07:27.986Z,5.20
2022-11-16T06:09:55.393Z,5.20
2022-11-16T06:12:22.622Z,5.20
2022-11-16T06:14:50.032Z,5.30
2022-11-16T06:17:17.312Z,5.30
2022-11-16T06:19:44.501Z,5.30
2022-11-16T06:22:11.682Z,5.30
2022-11-16T06:24:38.794Z,5.30
2022-11-16T06:27:06.045Z,5.40
2022-11-16T06:29:33.139Z,5.30
2022-11-16T06:32:03.211Z,5.30
2022-11-16T06:34:30.359Z,5.30
2022-11-16T06:37:00.406Z,5.30
2022-11-16T06:39:27.560Z,5.30
2022-11-16T06:41:54.674Z,5.30
2022-11-16T06:44:21.858Z,5.30
2022-11-16T06:46:51.966Z,5.30
2022-11-16T06:49:19.110Z,5.30
2022-11-16T06:51:49.186Z,5.20
2022-11-16T06:54:16.398Z,5.20
2022-11-16T06:56:46.508Z,5.20
2022-11-16T06:59:13.628Z,5.20
2022-11-16T07:01:41.092Z,5.10
2022-11-16T07:04:12.018Z,5.20
2022-11-16T07:06:39.610Z,5.20
2022-11-16T07:09:07.679Z,5.20
2022-11-16T07:11:35.621Z,5.10
2022-11-16T07:14:03.488Z,5.10
2022-11-16T07:16:30.731Z,5.20
2022-11-16T07:18:59.183Z,5.20
2022-11-16T07:21:26.322Z,5.20
2022-11-16T07:23:53.944Z,5.20
2022-11-16T07:26:21.134Z,5.20
2022-11-16T07:28:48.763Z,5.20
2022-11-16T07:31:16.577Z,5.30
2022-11-16T07:33:43.732Z,5.30
2022-11-16T07:36:13.355Z,5.40
2022-11-16T07:38:40.722Z,5.40
2022-11-16T07:41:09.760Z,5.50
2022-11-16T07:43:37.025Z,5.50
2022-11-16T07:49:10.908Z,5.40
2022-11-16T07:51:38.388Z,5.50
2022-11-16T07:54:06.627Z,5.60
2022-11-16T07:56:33.965Z,5.60
2022-11-16T07:59:01.560Z,5.60
2022-11-16T08:01:28.816Z,5.60
2022-11-16T08:03:56.115Z,5.70
2022-11-16T08:06:28.578Z,5.70
2022-11-16T08:08:58.712Z,5.70
2022-11-16T08:11:26.615Z,5.80
2022-11-16T08:13:53.836Z,5.90
2022-11-16T08:16:22.551Z,5.90
2022-11-16T08:18:50.110Z,6.00
2022-11-16T08:21:18.801Z,6.00
2022-11-16T08:23:46.218Z,5.90
2022-11-16T08:26:16.896Z,6.00
2022-11-16T08:28:46.391Z,5.90
2022-11-16T08:31:18.966Z,6.00
2022-11-16T08:33:46.218Z,6.00
2022-11-16T08:36:17.401Z,6.10
2022-11-16T08:38:46.370Z,6.10
2022-11-16T08:41:14.417Z,6.10
2022-11-16T08:43:41.935Z,6.10
2022-11-16T08:46:10.874Z,6.10
2022-11-16T08:48:38.438Z,6.20
2022-11-16T08:51:17.363Z,6.30
2022-11-16T08:53:48.362Z,6.30
2022-11-16T08:56:17.888Z,6.30
2022-11-16T08:58:47.438Z,6.30
2022-11-16T09:01:18.127Z,6.40
2022-11-16T09:03:46.092Z,6.50
2022-11-16T09:06:14.080Z,6.50
2022-11-16T09:08:43.654Z,6.50
2022-11-16T09:11:16.593Z,6.50
2022-11-16T09:13:45.624Z,6.40
2022-11-16T09:16:15.863Z,6.30
2022-11-16T09:18:45.653Z,6.50
2022-11-16T09:21:16.763Z,6.50
2022-11-16T09:23:43.861Z,6.50
2022-11-16T09:26:11.067Z,6.50
2022-11-16T09:28:38.243Z,6.60
2022-11-16T09:31:06.295Z,6.70
2022-11-16T09:33:34.427Z,6.70
2022-11-16T09:36:07.179Z,6.60
2022-11-16T09:38:55.810Z,6.70
2022-11-16T09:41:37.875Z,6.70
2022-11-16T09:44:23.179Z,6.70
2022-11-16T09:46:57.152Z,6.80
2022-11-16T09:49:39.376Z,6.70
2022-11-16T09:52:13.854Z,6.80
2022-11-16T09:54:44.988Z,6.90
2022-11-16T09:57:18.726Z,7.00
2022-11-16T09:59:53.629Z,7.10
2022-11-16T10:02:44.325Z,7.20
2022-11-16T10:05:31.528Z,7.30
2022-11-16T10:08:10.589Z,7.40
2022-11-16T10:10:54.947Z,7.30
2022-11-16T10:13:40.331Z,7.40
2022-11-16T10:16:07.834Z,7.50
2022-11-16T10:19:03.409Z,7.60
2022-11-16T10:21:46.156Z,7.70
2022-11-16T10:24:34.282Z,7.80
2022-11-16T10:27:38.251Z,8.00
2022-11-16T10:30:18.870Z,7.90
2022-11-16T10:32:56.754Z,7.90
2022-11-16T10:35:45.509Z,8.00
2022-11-16T10:38:19.295Z,8.00
2022-11-16T10:40:52.710Z,8.10
2022-11-16T10:43:32.059Z,8.20
2022-11-16T10:46:33.611Z,8.10
2022-11-16T10:49:07.370Z,8.10
2022-11-16T10:51:34.640Z,8.10
2022-11-16T10:54:01.813Z,8.10
2022-11-16T10:56:37.596Z,8.10
2022-11-16T10:59:06.122Z,8.10
2022-11-16T11:01:43.956Z,8.10
2022-11-16T11:04:22.132Z,8.00
2022-11-16T11:06:55.088Z,7.90
2022-11-16T11:09:38.505Z,8.00
2022-11-16T11:12:38.418Z,8.10
2022-11-16T11:15:11.659Z,8.10
2022-11-16T11:17:45.186Z,8.00
2022-11-16T11:20:20.573Z,8.10
2022-11-16T11:22:53.452Z,8.10
2022-11-16T11:25:24.731Z,8.00
2022-11-16T11:28:03.712Z,8.00
2022-11-16T11:30:31.166Z,8.00
2022-11-16T11:32:59.079Z,8.00
2022-11-16T11:35:32.994Z,8.00
2022-11-16T11:38:07.629Z,8.10
2022-11-16T11:40:36.255Z,8.10
2022-11-16T11:43:05.588Z,8.00
2022-11-16T11:45:35.034Z,8.00
2022-11-16T11:48:03.332Z,7.90
2022-11-16T11:50:40.349Z,7.90
2022-11-16T11:53:26.119Z,8.00
2022-11-16T11:55:58.758Z,7.90
2022-11-16T11:58:37.054Z,7.90
2022-11-16T12:01:20.722Z,8.00
2022-11-16T12:04:12.539Z,8.10
2022-11-16T12:07:07.462Z,8.10
2022-11-16T12:09:53.806Z,8.10
2022-11-16T12:12:47.237Z,8.00
2022-11-16T12:15:59.046Z,8.00
2022-11-16T12:18:44.641Z,8.20
2022-11-16T12:21:27.751Z,8.20
2022-11-16T12:23:54.893Z,8.30
2022-11-16T12:26:50.847Z,8.30
2022-11-16T12:29:35.071Z,8.20
2022-11-16T12:32:20.497Z,8.30
2022-11-16T12:35:09.742Z,8.20
2022-11-16T12:38:10.539Z,8.30
2022-11-16T12:41:04.651Z,8.30
2022-11-16T12:43:59.004Z,8.30
2022-11-16T12:46:59.142Z,8.30
2022-11-16T12:49:58.018Z,8.30
2022-11-16T12:52:52.743Z,8.40
2022-11-16T12:55:28.847Z,8.30
2022-11-16T12:58:33.477Z,8.40
2022-11-16T13:01:16.006Z,8.40
2022-11-16T13:04:07.699Z,8.50
2022-11-16T13:06:52.517Z,8.50
2022-11-16T13:09:27.846Z,8.50
2022-11-16T13:12:03.361Z,8.50
2022-11-16T13:14:38.931Z,8.60
2022-11-16T13:17:07.557Z,8.60
2022-11-16T13:19:39.919Z,8.70
2022-11-16T13:22:13.775Z,8.70
2022-11-16T13:24:46.999Z,8.70
2022-11-16T13:27:57.499Z,8.80
2022-11-16T13:30:56.847Z,8.80
2022-11-16T13:33:50.622Z,8.70
2022-11-16T13:36:37.221Z,8.60
2022-11-16T13:39:06.194Z,8.60
2022-11-16T13:41:39.405Z,8.40
2022-11-16T13:44:20.354Z,8.40
2022-11-16T13:46:59.623Z,8.40
2022-11-16T13:49:37.933Z,8.30
2022-11-16T13:52:23.368Z,8.20
2022-11-16T13:54:56.160Z,8.30
2022-11-16T13:57:34.789Z,8.30
2022-11-16T14:00:01.934Z,8.30
2022-11-16T14:02:36.315Z,8.30
2022-11-16T14:05:12.527Z,8.20
2022-11-16T14:07:44.973Z,8.20
2022-11-16T14:10:32.595Z,8.20
2022-11-16T14:13:04.488Z,8.10
2022-11-16T14:15:34.493Z,8.10
2022-11-16T14:18:11.820Z,8.10
2022-11-16T14:20:51.125Z,8.10
2022-11-16T14:23:31.888Z,8.00
2022-11-16T14:26:26.989Z,8.00
2022-11-16T14:29:12.580Z,7.90
2022-11-16T14:31:51.226Z,7.90
2022-11-16T14:34:30.404Z,7.90
2022-11-16T14:36:59.132Z,7.90
2022-11-16T14:39:31.138Z,7.90
2022-11-16T14:42:18.209Z,7.90
2022-11-16T14:44:46.690Z,7.90
2022-11-16T14:47:35.911Z,7.80
2022-11-16T14:50:03.668Z,7.70
2022-11-16T14:52:38.750Z,7.70
2022-11-16T14:55:09.265Z,7.60
2022-11-16T14:57:36.979Z,7.60
2022-11-16T15:00:19.212Z,7.70
2022-11-16T15:02:56.371Z,7.60
2022-11-16T15:05:34.506Z,7.50
2022-11-16T15:08:03.840Z,7.50
2022-11-16T15:10:31.264Z,7.50
2022-11-16T15:12:58.500Z,7.50
2022-11-16T15:15:31.222Z,7.50
2022-11-16T15:18:07.209Z,7.50
2022-11-16T15:20:37.809Z,7.50
2022-11-16T15:23:13.119Z,7.50
2022-11-16T15:26:00.377Z,7.60
2022-11-16T15:28:29.874Z,7.60
2022-11-16T15:31:04.524Z,7.50
2022-11-16T15:33:41.454Z,7.50
2022-11-16T15:36:37.878Z,7.50
2022-11-16T15:39:06.021Z,7.50
2022-11-16T15:41:34.382Z,7.50
2022-11-16T15:44:19.149Z,7.50
2022-11-16T15:46:50.291Z,7.40
2022-11-16T15:49:35.702Z,7.40
2022-11-16T15:52:03.032Z,7.50
2022-11-16T15:54:51.085Z,7.50
2022-11-16T15:57:19.813Z,7.50
2022-11-16T15:59:54.816Z,7.50
2022-11-16T16:02:29.685Z,7.50
2022-11-16T16:04:57.032Z,7.50
2022-11-16T16:07:43.049Z,7.40
2022-11-16T16:10:22.179Z,7.50
2022-11-16T16:12:57.621Z,7.40
2022-11-16T16:15:34.182Z,7.40
2022-11-16T16:18:03.417Z,7.30
2022-11-16T16:20:32.602Z,7.20
2022-11-16T16:23:12.727Z,7.20
2022-11-16T16:25:39.919Z,7.20
2022-11-16T16:28:07.019Z,7.20
2022-11-16T16:30:35.075Z,7.10
2022-11-16T16:33:02.465Z,7.10
2022-11-16T16:35:29.740Z,7.10
2022-11-16T16:38:01.485Z,7.10
2022-11-16T16:40:29.067Z,7.10
2022-11-16T16:42:57.894Z,7.10
2022-11-16T16:45:35.174Z,7.10
2022-11-16T16:48:02.347Z,7.10
2022-11-16T16:50:29.490Z,7.10
2022-11-16T16:52:56.747Z,7.10
2022-11-16T16:55:23.881Z,7.10
2022-11-16T16:57:51.345Z,7.10
2022-11-16T17:00:18.827Z,7.20
2022-11-16T17:02:46.036Z,7.10
2022-11-16T17:05:14.131Z,7.10
2022-11-16T17:07:41.517Z,7.10
2022-11-16T17:10:09.207Z,7.10
2022-11-16T17:12:36.395Z,7.10
2022-11-16T17:15:04.117Z,7.10
2022-11-16T17:17:31.986Z,7.00
2022-11-16T17:19:59.154Z,7.00
2022-11-16T17:22:26.372Z,6.90
2022-11-16T17:24:53.554Z,6.90
2022-11-16T17:27:20.653Z,6.90
2022-11-16T17:29:47.804Z,7.00
2022-11-16T17:32:14.925Z,6.90
2022-11-16T17:34:42.077Z,7.00
2022-11-16T17:37:09.522Z,7.00
2022-11-16T17:39:36.726Z,7.00
2022-11-16T17:42:03.965Z,6.90
2022-11-16T17:44:31.151Z,6.90
2022-11-16T17:46:58.398Z,6.80
2022-11-16T17:49:25.624Z,6.80
2022-11-16T17:51:52.843Z,6.80
2022-11-16T17:54:20.062Z,6.80
2022-11-16T17:56:47.245Z,6.80
2022-11-16T17:59:14.435Z,6.80
2022-11-16T18:01:41.636Z,6.80
2022-11-16T18:04:08.809Z,6.70
2022-11-16T18:06:36.033Z,6.70
2022-11-16T18:09:03.307Z,6.70
2022-11-16T18:11:30.711Z,6.70
2022-11-16T18:14:00.703Z,6.70
2022-11-16T18:16:30.723Z,6.70
2022-11-16T18:19:00.250Z,6.70
2022-11-16T18:21:27.468Z,6.80
2022-11-16T18:23:54.999Z,6.80
2022-11-16T18:26:23.684Z,6.80
2022-11-16T18:28:52.445Z,6.80
2022-11-16T18:31:21.987Z,6.80
2022-11-16T18:33:49.459Z,6.80
2022-11-16T18:36:17.765Z,6.80
2022-11-16T18:38:46.054Z,6.80
2022-11-16T18:41:13.186Z,6.80
2022-11-16T18:43:50.359Z,6.80
2022-11-16T18:46:19.990Z,6.80
2022-11-16T18:48:47.703Z,6.80
2022-11-16T18:51:15.898Z,6.80
2022-11-16T18:53:43.487Z,6.90
2022-11-16T18:56:11.963Z,6.90
2022-11-16T18:58:55.135Z,6.90
2022-11-16T19:01:25.526Z,6.90
2022-11-16T19:03:54.014Z,6.80
2022-11-16T19:06:22.017Z,6.90
2022-11-16T19:08:56.306Z,6.90
2022-11-16T19:11:24.223Z,6.90
2022-11-16T19:14:07.487Z,6.80
2022-11-16T19:16:35.060Z,6.70
2022-11-16T19:19:02.545Z,6.70
2022-11-16T19:21:30.049Z,6.70
2022-11-16T19:23:57.799Z,6.70
2022-11-16T19:26:27.386Z,6.60
2022-11-16T19:28:55.130Z,6.70
2022-11-16T19:31:30.509Z,6.70
2022-11-16T19:34:04.445Z,6.80
2022-11-16T19:36:33.141Z,6.80
2022-11-16T19:39:00.605Z,6.80
2022-11-16T19:41:28.214Z,6.80
2022-11-16T19:43:59.645Z,6.80
2022-11-16T19:46:28.803Z,6.80
2022-11-16T19:48:56.840Z,6.90
2022-11-16T19:51:29.180Z,6.90
2022-11-16T19:53:57.998Z,6.90
2022-11-16T19:56:25.381Z,6.90
2022-11-16T19:58:53.093Z,6.90
2022-11-16T20:01:23.688Z,6.90
2022-11-16T20:03:51.036Z,6.90
2022-11-16T20:06:21.715Z,6.90
2022-11-16T20:08:50.972Z,6.90
2022-11-16T20:11:24.119Z,6.90
2022-11-16T20:13:52.815Z,6.80
2022-11-16T20:16:24.710Z,6.80
2022-11-16T20:18:52.718Z,6.80
2022-11-16T20:21:22.551Z,6.80
2022-11-16T20:23:51.726Z,6.80
2022-11-16T20:26:20.718Z,6.80
2022-11-16T20:28:51.007Z,6.80
2022-11-16T20:31:23.655Z,6.80
2022-11-16T20:33:58.944Z,6.80
2022-11-16T20:36:28.397Z,6.70
2022-11-16T20:38:57.269Z,6.70
2022-11-16T20:41:29.962Z,6.70
2022-11-16T20:43:58.839Z,6.70
2022-11-16T20:46:28.410Z,6.70
2022-11-16T20:48:57.298Z,6.70
2022-11-16T20:51:24.719Z,6.70
2022-11-16T20:53:52.261Z,6.70
2022-11-16T20:56:20.771Z,6.60
2022-11-16T20:58:49.350Z,6.50
2022-11-16T21:01:28.848Z,6.50
2022-11-16T21:03:56.724Z,6.50
2022-11-16T21:06:24.277Z,6.50
2022-11-16T21:08:52.038Z,6.50
2022-11-16T21:11:22.981Z,6.60
2022-11-16T21:14:08.659Z,6.50
2022-11-16T21:16:35.924Z,6.50
2022-11-16T21:19:03.434Z,6.50
2022-11-16T21:21:32.071Z,6.40
2022-11-16T21:23:59.317Z,6.40
2022-11-16T21:26:31.117Z,6.40
2022-11-16T21:28:59.337Z,6.50
2022-11-16T21:31:29.854Z,6.60
2022-11-16T21:33:58.105Z,6.60
2022-11-16T21:36:27.753Z,6.50
2022-11-16T21:38:55.371Z,6.60
2022-11-16T21:41:24.036Z,6.60
2022-11-16T21:43:51.329Z,6.60
2022-11-16T21:46:24.795Z,6.60
2022-11-16T21:48:53.850Z,6.60
2022-11-16T21:51:22.690Z,6.50
2022-11-16T21:53:49.910Z,6.60
2022-11-16T21:56:19.575Z,6.60
2022-11-16T21:58:46.818Z,6.60
2022-11-16T22:01:16.125Z,6.60
2022-11-16T22:03:44.774Z,6.50
2022-11-16T22:06:34.850Z,6.50
2022-11-16T22:09:02.106Z,6.40
2022-11-16T22:11:29.356Z,6.40
2022-11-16T22:13:56.602Z,6.30
2022-11-16T22:16:23.838Z,6.30
2022-11-16T22:18:51.066Z,6.20
2022-11-16T22:21:18.379Z,6.20
2022-11-16T22:23:45.539Z,6.20
2022-11-16T22:26:14.629Z,6.20
2022-11-16T22:28:41.910Z,6.20
2022-11-16T22:31:13.823Z,6.30
2022-11-16T22:33:41.804Z,6.30
2022-11-16T22:36:13.341Z,6.40
2022-11-16T22:38:40.457Z,6.40
2022-11-16T22:41:07.751Z,6.40
2022-11-16T22:43:36.158Z,6.50
2022-11-16T22:46:05.707Z,6.40
2022-11-16T22:48:38.082Z,6.40
2022-11-16T22:51:26.035Z,6.40
2022-11-16T22:54:01.665Z,6.40
2022-11-16T22:56:30.965Z,6.30
2022-11-16T22:58:58.523Z,6.20
2022-11-16T23:01:25.762Z,6.20
2022-11-16T23:03:52.980Z,6.10
2022-11-16T23:06:20.206Z,6.10
2022-11-16T23:08:47.547Z,6.10
2022-11-16T23:11:38.408Z,6.00
2022-11-16T23:14:25.218Z,6.10
2022-11-16T23:16:52.763Z,6.00
2022-11-16T23:19:40.273Z,6.00
2022-11-16T23:22:31.054Z,6.00
2022-11-16T23:25:16.757Z,6.00
2022-11-16T23:28:02.378Z,6.00
2022-11-16T23:30:29.538Z,6.00
2022-11-16T23:32:56.747Z,6.00
2022-11-16T23:35:23.888Z,5.90
2022-11-16T23:37:56.800Z,5.90
2022-11-16T23:40:38.526Z,5.90
2022-11-16T23:43:25.105Z,5.70
2022-11-16T23:45:52.237Z,5.70
2022-11-16T23:48:20.164Z,5.60
2022-11-16T23:50:47.437Z,5.60
2022-11-16T23:53:14.879Z,5.70
2022-11-16T23:55:42.149Z,5.60
2022-11-16T23:58:14.628Z,5.60
